KPBI/PBI METAR and TAF weather

Enter ICAO airport designator
Station Type Date Time Source
KPBI METAR 2021/10/20 05:53 UTC NOAA

KPBI 200553Z 08007KT 10SM FEW050 26/16 A3014 RMK AO2 SLP206 T02560161 10267 20256 58004


Station Type Date Time Source
KPBI Decoded METAR 2021/10/20 05:53 UTC NOAA

PALM BEACH INTERNATIONAL, FL, United States (KPBI) 26-41N 80-06W 6M
Oct 20, 2021 - 01:53 AM EDT / 2021.10.20 0553 UTC
Wind: from the E (080 degrees) at 8 MPH (7 KT):0
Visibility: 10 mile(s):0
Sky conditions: mostly clear
Temperature: 78.1 F (25.6 C)
Dew Point: 61.0 F (16.1 C)
Relative Humidity: 55%
Pressure (altimeter): 30.14 in. Hg (1020 hPa)
Pressure tendency: 0.01 inches (0.4 hPa) lower than three hours ago
ob: KPBI 200553Z 08007KT 10SM FEW050 26/16 A3014 RMK AO2 SLP206 T02560161 10267 20256 58004
cycle: 6

Station Type Date Time Source
KPBI TAF 2021/10/20 06:30 UTC NOAA

TAF KPBI 200523Z 2006/2106 08008KT P6SM FEW030 SCT050
FM201500 08012KT P6SM SCT025 BKN040
FM210200 08008KT P6SM SCT030

Example: see airport list